Time;durP1;ratioP1;P1;durP2;ratioP2;P2;SDS_P1;SDS_P2;PMS_P1;PMS_P2;Temp;Humidity;BMP_temperature;BMP_pressure;BME280_temperature;BME280_humidity;BME280_pressure;Samples;Min_cycle;Max_cycle;Signal;HPM_P1;HPM_P2
2021/09/28 00:02:13;;;;;;;;;;;;;;;-144.99;100.00;52419.56;5069997;28;19981;-61
2021/09/28 00:04:41;;;;;;;;;;;;;;;-144.99;100.00;52484.78;5067709;28;19981;-60
2021/09/28 00:07:08;;;;;;;;;;;;;;;-144.99;100.00;52476.63;5068517;28;19989;-61
2021/09/28 00:09:34;;;;;;;;;;;;;;;-144.99;100.00;52468.47;5069529;28;19980;-60
2021/09/28 00:12:00;;;;;;;;;;;;;;;-144.99;100.00;52435.88;5068470;28;20273;-60
2021/09/28 00:14:27;;;;;;;;;;;;;;;-144.99;100.00;52480.72;5068489;28;19977;-59
2021/09/28 00:16:53;;;;;;;;;;;;;;;-144.99;100.00;52433.81;5067869;28;19984;-60
2021/09/28 00:19:19;;;;;;;;;;;;;;;-144.99;100.00;52464.41;5069701;28;19988;-60
2021/09/28 00:21:47;;;;;;;;;;;;;;;-144.99;100.00;52458.28;5064270;28;20108;-60
2021/09/28 00:24:14;;;;;;;;;;;;;;;-144.99;100.00;52468.47;5061990;28;19973;-61
2021/09/28 00:26:41;;;;;;;;;;;;;;;-144.99;100.00;52456.25;5064730;28;19981;-61
2021/09/28 00:29:07;;;;;;;;;;;;;;;-144.99;100.00;52474.59;5067130;28;19984;-62
2021/09/28 00:31:33;;;;;;;;;;;;;;;-144.99;100.00;52492.94;5069114;28;19988;-61
2021/09/28 00:34:00;;;;;;;;;;;;;;;-144.99;100.00;52480.72;5069197;28;19991;-61
2021/09/28 00:36:26;;;;;;;;;;;;;;;-144.99;100.00;52468.47;5067610;28;19987;-62
2021/09/28 00:38:54;;;;;;;;;;;;;;;-144.99;100.00;52480.72;5068637;28;20373;-61
2021/09/28 00:41:20;;;;;;;;;;;;;;;-144.99;100.00;52439.94;5068873;28;20257;-59
2021/09/28 00:43:47;;;;;;;;;;;;;;;-144.99;100.00;52488.84;5069182;28;19985;-61
2021/09/28 00:46:14;;;;;;;;;;;;;;;-144.99;100.00;52468.47;5066603;28;20605;-60
2021/09/28 00:48:40;;;;;;;;;;;;;;;-144.99;100.00;52484.78;5068674;28;20015;-60
2021/09/28 00:51:07;;;;;;;;;;;;;;;-144.99;100.00;52460.31;5066368;28;19981;-60
2021/09/28 00:53:38;;;;;;;;;;;;;;;-144.99;100.00;52472.56;5071274;28;19985;-60
2021/09/28 00:56:05;;;;;;;;;;;;;;;-144.99;100.00;52444.03;5072063;28;20325;-61
2021/09/28 00:58:32;;;;;;;;;;;;;;;-144.99;100.00;52466.44;5072484;28;20004;-60
2021/09/28 01:01:01;;;;;;;;;;;;;;;-144.99;100.00;52468.47;5072579;28;19976;-58
2021/09/28 01:03:28;;;;;;;;;;;;;;;-144.99;100.00;52488.84;5064176;28;19977;-58
2021/09/28 01:05:54;;;;;;;;;;;;;;;-144.99;100.00;52505.16;5065375;28;19979;-58
2021/09/28 01:08:21;;;;;;;;;;;;;;;-144.99;100.00;52480.72;5071506;28;20476;-59
2021/09/28 01:10:47;;;;;;;;;;;;;;;-144.99;100.00;52509.25;5072064;28;20020;-59
2021/09/28 01:13:15;;;;;;;;;;;;;;;-144.99;100.00;52437.91;5072369;28;20246;-60
2021/09/28 01:15:46;;;;;;;;;;;;;;;-144.99;100.00;52480.72;5071966;28;19981;-61
2021/09/28 01:18:12;;;;;;;;;;;;;;;-144.99;100.00;52501.09;5071150;28;20000;-61
2021/09/28 01:20:40;;;;;;;;;;;;;;;-144.99;100.00;52439.94;5072522;28;19996;-62
2021/09/28 01:23:06;;;;;;;;;;;;;;;-144.99;100.00;52488.84;5072368;28;19981;-62
2021/09/28 01:25:32;;;;;;;;;;;;;;;-144.99;100.00;52476.63;5070053;28;19984;-62
2021/09/28 01:27:59;;;;;;;;;;;;;;;-144.99;100.00;52476.63;5072412;28;19992;-61
2021/09/28 01:30:25;;;;;;;;;;;;;;;-144.99;100.00;52472.56;5072361;28;20167;-61
2021/09/28 01:32:52;;;;;;;;;;;;;;;-144.99;100.00;52444.03;5072462;28;19981;-61
2021/09/28 01:35:18;;;;;;;;;;;;;;;-144.99;100.00;52437.91;5065372;28;20067;-61
2021/09/28 01:37:46;;;;;;;;;;;;;;;-144.99;100.00;52435.88;5067726;28;19993;-61
2021/09/28 01:40:12;;;;;;;;;;;;;;;-144.99;100.00;52501.09;5071833;28;20000;-61
2021/09/28 01:42:39;;;;;;;;;;;;;;;-144.99;100.00;52464.41;5071927;28;20516;-61
2021/09/28 01:45:05;;;;;;;;;;;;;;;-144.99;100.00;52464.41;5069979;28;20408;-61
2021/09/28 01:47:32;;;;;;;;;;;;;;;-144.99;100.00;52480.72;5070482;28;20001;-62
2021/09/28 01:49:59;;;;;;;;;;;;;;;-144.99;100.00;52468.47;5072140;28;19981;-62
2021/09/28 01:52:25;;;;;;;;;;;;;;;-144.99;100.00;52435.88;5053570;28;19980;-62
2021/09/28 01:54:53;;;;;;;;;;;;;;;-144.99;100.00;52497.00;5069943;28;19973;-62
2021/09/28 01:57:19;;;;;;;;;;;;;;;-144.99;100.00;52452.16;5067809;28;20580;-62
2021/09/28 01:59:45;;;;;;;;;;;;;;;-144.99;100.00;52505.16;5071821;28;20026;-62
2021/09/28 02:02:12;;;;;;;;;;;;;;;-144.99;100.00;52490.91;5071455;28;20001;-62
2021/09/28 02:04:38;;;;;;;;;;;;;;;-144.99;100.00;52480.72;5070509;28;19981;-62
2021/09/28 02:07:04;;;;;;;;;;;;;;;-144.99;100.00;52499.06;5069324;28;19989;-62
2021/09/28 02:09:31;;;;;;;;;;;;;;;-144.99;100.00;52509.25;5070887;28;19984;-62
2021/09/28 02:11:58;;;;;;;;;;;;;;;-144.99;100.00;52468.47;5069249;28;19988;-64
2021/09/28 02:14:28;;;;;;;;;;;;;;;-144.99;100.00;52505.16;5071495;28;19976;-64
2021/09/28 02:16:55;;;;;;;;;;;;;;;-144.99;100.00;52456.25;5068764;28;19989;-64
2021/09/28 02:19:21;;;;;;;;;;;;;;;-144.99;100.00;52456.25;5071895;28;19977;-64
2021/09/28 02:21:48;;;;;;;;;;;;;;;-144.99;100.00;52460.31;5070801;28;20368;-63
2021/09/28 02:24:15;;;;;;;;;;;;;;;-144.99;100.00;52501.09;5063721;28;19980;-64
2021/09/28 02:26:42;;;;;;;;;;;;;;;-144.99;100.00;52472.56;5063285;28;19976;-63
2021/09/28 02:29:09;;;;;;;;;;;;;;;-144.99;100.00;52513.31;5071006;28;20483;-63
2021/09/28 02:31:36;;;;;;;;;;;;;;;-144.99;100.00;52439.94;5071330;28;19980;-63
2021/09/28 02:34:06;;;;;;;;;;;;;;;-144.99;100.00;52492.94;5071232;28;19984;-63
2021/09/28 02:36:32;;;;;;;;;;;;;;;-144.99;100.00;52497.00;5069414;28;20158;-60
2021/09/28 02:38:59;;;;;;;;;;;;;;;-144.99;100.00;52464.41;5070517;28;20012;-60
2021/09/28 02:41:25;;;;;;;;;;;;;;;-144.99;100.00;52468.47;5070388;28;19993;-61
2021/09/28 02:43:51;;;;;;;;;;;;;;;-144.99;100.00;52497.00;5070606;28;19970;-62
2021/09/28 02:46:19;;;;;;;;;;;;;;;-144.99;100.00;52452.16;5070782;28;19981;-60
2021/09/28 02:48:45;;;;;;;;;;;;;;;-144.99;100.00;52492.94;5068173;28;20000;-60
2021/09/28 02:51:12;;;;;;;;;;;;;;;-144.99;100.00;52476.63;5068906;28;19977;-58
2021/09/28 02:53:38;;;;;;;;;;;;;;;-144.99;100.00;52464.41;5070652;28;19980;-59
2021/09/28 02:56:05;;;;;;;;;;;;;;;-144.99;100.00;52488.84;5070608;28;19928;-59
2021/09/28 02:58:31;;;;;;;;;;;;;;;-144.99;100.00;52448.09;5068594;28;20003;-60
2021/09/28 03:00:57;;;;;;;;;;;;;;;-144.99;100.00;52460.31;5069718;28;20139;-59
2021/09/28 03:03:25;;;;;;;;;;;;;;;-144.99;100.00;52472.56;5067741;28;19984;-59
2021/09/28 03:05:51;;;;;;;;;;;;;;;-144.99;100.00;52476.63;5061796;28;20449;-59
2021/09/28 03:08:18;;;;;;;;;;;;;;;-144.99;100.00;52472.56;5068814;28;19989;-59
2021/09/28 03:10:44;;;;;;;;;;;;;;;-144.99;100.00;52480.72;5067133;28;19973;-59
2021/09/28 03:13:11;;;;;;;;;;;;;;;-144.99;100.00;52519.44;5064132;28;20000;-59
2021/09/28 03:15:37;;;;;;;;;;;;;;;-144.99;100.00;52458.28;5068213;28;19968;-60
2021/09/28 03:18:04;;;;;;;;;;;;;;;-144.99;100.00;52452.16;5068984;28;20072;-60
2021/09/28 03:20:31;;;;;;;;;;;;;;;-144.99;100.00;52533.69;5069882;28;19977;-61
2021/09/28 03:22:58;;;;;;;;;;;;;;;-144.99;100.00;52452.16;5069274;28;20363;-60
2021/09/28 03:25:25;;;;;;;;;;;;;;;-144.99;100.00;52452.16;5068283;28;19980;-60
2021/09/28 03:27:51;;;;;;;;;;;;;;;-144.99;100.00;52488.84;5070453;28;20056;-60
2021/09/28 03:30:17;;;;;;;;;;;;;;;-144.99;100.00;52501.09;5069678;28;19973;-60
2021/09/28 03:32:44;;;;;;;;;;;;;;;-144.99;100.00;52472.56;5070922;28;19984;-60
2021/09/28 03:35:11;;;;;;;;;;;;;;;-144.99;100.00;52492.94;5070394;28;19973;-59
2021/09/28 03:37:39;;;;;;;;;;;;;;;-144.99;100.00;52478.66;5070022;28;20004;-59
2021/09/28 03:40:06;;;;;;;;;;;;;;;-144.99;100.00;52488.84;5068208;28;19983;-59
2021/09/28 03:42:33;;;;;;;;;;;;;;;-144.99;100.00;52509.25;5069737;28;20000;-59
2021/09/28 03:44:59;;;;;;;;;;;;;;;-144.99;100.00;52476.63;5070331;28;19988;-58
2021/09/28 03:47:25;;;;;;;;;;;;;;;-144.99;100.00;52460.31;5069578;28;20042;-59
2021/09/28 03:49:52;;;;;;;;;;;;;;;-144.99;100.00;52480.72;5068463;28;19983;-59
2021/09/28 03:52:18;;;;;;;;;;;;;;;-144.99;100.00;52441.97;5064459;28;20440;-59
2021/09/28 03:54:46;;;;;;;;;;;;;;;-144.99;100.00;52444.03;5067655;28;20464;-59
2021/09/28 03:57:12;;;;;;;;;;;;;;;-144.99;100.00;52476.63;5069514;28;19997;-59
2021/09/28 03:59:38;;;;;;;;;;;;;;;-144.99;100.00;52462.34;5066965;28;19973;-58
2021/09/28 04:02:05;;;;;;;;;;;;;;;-144.99;100.00;52472.56;5063824;28;19966;-58
2021/09/28 04:04:31;;;;;;;;;;;;;;;-144.99;100.00;52492.94;5069782;28;19984;-58
2021/09/28 04:06:59;;;;;;;;;;;;;;;-144.99;100.00;52501.09;5069508;28;20387;-58
2021/09/28 04:09:25;;;;;;;;;;;;;;;-144.99;100.00;52458.28;5069059;28;19989;-59
2021/09/28 04:11:53;;;;;;;;;;;;;;;-144.99;100.00;52464.41;5066964;28;19977;-59
2021/09/28 04:14:19;;;;;;;;;;;;;;;-144.99;100.00;52492.94;5063907;28;19988;-60
2021/09/28 04:16:45;;;;;;;;;;;;;;;-144.99;100.00;52462.34;5069654;28;19972;-64
2021/09/28 04:19:12;;;;;;;;;;;;;;;-144.99;100.00;52460.31;5069695;28;20003;-64
2021/09/28 04:21:39;;;;;;;;;;;;;;;-144.99;100.00;52464.41;5067156;28;20369;-64
2021/09/28 04:24:06;;;;;;;;;;;;;;;-144.99;100.00;52452.16;5065054;28;20013;-63
2021/09/28 04:26:33;;;;;;;;;;;;;;;-144.99;100.00;52488.84;5062815;28;19977;-62
2021/09/28 04:29:00;;;;;;;;;;;;;;;-144.99;100.00;52464.41;5071191;28;20361;-62
2021/09/28 04:31:27;;;;;;;;;;;;;;;-144.99;100.00;52497.00;5072715;28;19976;-63
2021/09/28 04:33:53;;;;;;;;;;;;;;;-144.99;100.00;52501.09;5071536;28;19984;-64
2021/09/28 04:36:20;;;;;;;;;;;;;;;-144.99;100.00;52480.72;5072719;28;19992;-62
2021/09/28 04:38:46;;;;;;;;;;;;;;;-144.99;100.00;52484.78;5071975;28;20016;-64
2021/09/28 04:41:12;;;;;;;;;;;;;;;-144.99;100.00;52462.34;5070898;28;20166;-64
2021/09/28 04:43:39;;;;;;;;;;;;;;;-144.99;100.00;52492.94;5073719;28;19981;-64
2021/09/28 04:46:06;;;;;;;;;;;;;;;-144.99;100.00;52472.56;5073356;28;19981;-63
2021/09/28 04:48:33;;;;;;;;;;;;;;;-144.99;100.00;52494.97;5072064;28;20013;-64
2021/09/28 04:50:59;;;;;;;;;;;;;;;-144.99;100.00;52488.84;5071073;28;20313;-63
2021/09/28 04:53:26;;;;;;;;;;;;;;;-144.99;100.00;52492.94;5068391;28;20003;-62
2021/09/28 04:55:54;;;;;;;;;;;;;;;-144.99;100.00;52484.78;5072871;28;20344;-64
2021/09/28 04:58:21;;;;;;;;;;;;;;;-144.99;100.00;52505.16;5072798;28;20462;-63
2021/09/28 05:00:47;;;;;;;;;;;;;;;-144.99;100.00;52511.28;5071079;28;19977;-62
2021/09/28 05:03:19;;;;;;;;;;;;;;;-144.99;100.00;52472.56;5070730;28;19993;-73
2021/09/28 05:05:45;;;;;;;;;;;;;;;-144.99;100.00;52464.41;5064478;28;19981;-72
2021/09/28 05:08:12;;;;;;;;;;;;;;;-144.99;100.00;52456.25;5072574;28;19997;-72
2021/09/28 05:10:38;;;;;;;;;;;;;;;-144.99;100.00;52460.31;5067867;28;19996;-73
2021/09/28 05:13:05;;;;;;;;;;;;;;;-144.99;100.00;52501.09;5070814;28;20342;-75
2021/09/28 05:15:31;;;;;;;;;;;;;;;-144.99;100.00;52452.16;5073410;28;20448;-68
2021/09/28 05:17:58;;;;;;;;;;;;;;;-144.99;100.00;52456.25;4020727;28;10000736;-69
2021/09/28 05:20:25;;;;;;;;;;;;;;;-144.99;100.00;52492.94;5067940;28;19981;-69
2021/09/28 05:22:52;;;;;;;;;;;;;;;-144.99;100.00;52515.34;5067290;28;20289;-68
2021/09/28 05:25:18;;;;;;;;;;;;;;;-144.99;100.00;52509.25;5069458;28;19991;-68
2021/09/28 05:27:44;;;;;;;;;;;;;;;-144.99;100.00;52456.25;5065587;28;20488;-67
2021/09/28 05:30:11;;;;;;;;;;;;;;;-144.99;100.00;52476.63;5066515;28;19985;-68
2021/09/28 05:32:37;;;;;;;;;;;;;;;-144.99;100.00;52490.91;5058071;28;19974;-68
2021/09/28 05:35:04;;;;;;;;;;;;;;;-144.99;100.00;52472.56;5062398;28;20048;-68
2021/09/28 05:37:31;;;;;;;;;;;;;;;-144.99;100.00;52492.94;5066364;28;20000;-68
2021/09/28 05:39:58;;;;;;;;;;;;;;;-144.99;100.00;52474.59;5063789;28;20000;-68
2021/09/28 05:42:24;;;;;;;;;;;;;;;-144.99;100.00;52484.78;5063898;28;19993;-68
2021/09/28 05:44:50;;;;;;;;;;;;;;;-144.99;100.00;52558.16;5067753;28;20008;-68
2021/09/28 05:47:16;;;;;;;;;;;;;;;-144.99;100.00;52476.63;5066711;28;22038;-68
2021/09/28 05:49:43;;;;;;;;;;;;;;;-144.99;100.00;52499.06;5063545;28;20014;-68
2021/09/28 05:52:12;;;;;;;;;;;;;;;-144.99;100.00;52480.72;5061213;28;19983;-68
2021/09/28 05:54:47;;;;;;;;;;;;;;;-144.99;100.00;52513.31;5065303;28;20163;-68
2021/09/28 05:57:14;;;;;;;;;;;;;;;-144.99;100.00;52456.25;5067946;28;20023;-67
2021/09/28 05:59:41;;;;;;;;;;;;;;;-144.99;100.00;52476.63;5067570;28;20067;-67
2021/09/28 06:02:08;;;;;;;;;;;;;;;-144.99;100.00;52452.16;5065953;28;19989;-68
2021/09/28 06:04:34;;;;;;;;;;;;;;;-144.99;100.00;52492.94;5068380;28;19981;-68
2021/09/28 06:07:01;;;;;;;;;;;;;;;-144.99;100.00;52468.47;5068050;28;20027;-67
2021/09/28 06:09:27;;;;;;;;;;;;;;;-144.99;100.00;52437.91;5068506;28;19992;-68
2021/09/28 06:11:55;;;;;;;;;;;;;;;-144.99;100.00;52460.31;5063577;28;19984;-68
2021/09/28 06:14:23;;;;;;;;;;;;;;;-144.99;100.00;52492.94;5061252;28;20540;-68
2021/09/28 06:16:49;;;;;;;;;;;;;;;-144.99;100.00;52476.63;5068746;28;20418;-67
2021/09/28 06:19:15;;;;;;;;;;;;;;;-144.99;100.00;52488.84;5059408;28;19989;-72
2021/09/28 06:21:42;;;;;;;;;;;;;;;-144.99;100.00;52452.16;5065462;28;20183;-68
2021/09/28 06:24:09;;;;;;;;;;;;;;;-144.99;100.00;52425.66;5063401;28;20422;-68
2021/09/28 06:26:35;;;;;;;;;;;;;;;-144.99;100.00;52446.06;5061480;28;19996;-68
2021/09/28 06:29:03;;;;;;;;;;;;;;;-144.99;100.00;52470.50;5068231;28;20010;-68
2021/09/28 06:31:29;;;;;;;;;;;;;;;-144.99;100.00;52462.34;5066987;28;19977;-69
2021/09/28 06:33:55;;;;;;;;;;;;;;;-144.99;100.00;52427.72;5065914;28;20519;-68
2021/09/28 06:36:22;;;;;;;;;;;;;;;-144.99;100.00;52437.91;5067201;28;19984;-68
2021/09/28 06:38:50;;;;;;;;;;;;;;;-144.99;100.00;52464.41;5067196;28;20004;-68
2021/09/28 06:41:16;;;;;;;;;;;;;;;-144.99;100.00;52448.09;5065730;28;19988;-68
2021/09/28 06:43:43;;;;;;;;;;;;;;;-144.99;100.00;52470.50;5065055;28;20003;-68
2021/09/28 06:46:10;;;;;;;;;;;;;;;-144.99;100.00;52492.94;5064272;28;19987;-68
2021/09/28 06:48:37;;;;;;;;;;;;;;;-144.99;100.00;52480.72;5067905;28;20027;-68
2021/09/28 06:51:03;;;;;;;;;;;;;;;-144.99;100.00;52470.50;5067170;28;20448;-69
2021/09/28 06:53:30;;;;;;;;;;;;;;;-144.99;100.00;52476.63;5065993;28;20099;-68
2021/09/28 06:55:56;;;;;;;;;;;;;;;-144.99;100.00;52452.16;5065691;28;19980;-67
2021/09/28 06:58:22;;;;;;;;;;;;;;;-144.99;100.00;52444.03;5067827;28;19997;-68
2021/09/28 07:00:50;;;;;;;;;;;;;;;-144.99;100.00;52480.72;5067819;28;19980;-68
2021/09/28 07:03:18;;;;;;;;;;;;;;;-144.99;100.00;52474.59;5066476;28;19989;-68
2021/09/28 07:05:44;;;;;;;;;;;;;;;-144.99;100.00;52464.41;5068983;28;20233;-68
2021/09/28 07:08:10;;;;;;;;;;;;;;;-144.99;100.00;52468.47;5068419;28;19997;-68
2021/09/28 07:10:37;;;;;;;;;;;;;;;-144.99;100.00;52460.31;5068284;28;20529;-69
2021/09/28 07:13:03;;;;;;;;;;;;;;;-144.99;100.00;52472.56;5062329;28;19984;-69
2021/09/28 07:15:31;;;;;;;;;;;;;;;-144.99;100.00;52464.41;5060568;28;19977;-69
2021/09/28 07:17:57;;;;;;;;;;;;;;;-144.99;100.00;52433.81;5062357;28;20361;-68
2021/09/28 07:20:25;;;;;;;;;;;;;;;-144.99;100.00;52456.25;5064507;28;19984;-69
2021/09/28 07:22:51;;;;;;;;;;;;;;;-144.99;100.00;52419.56;5065484;28;20136;-69
2021/09/28 07:25:18;;;;;;;;;;;;;;;-144.99;99.95;52427.72;5065822;28;19945;-68
2021/09/28 07:27:44;;;;;;;;;;;;;;;-144.99;98.02;52391.03;5067764;28;19993;-68
2021/09/28 07:30:12;;;;;;;;;;;;;;;-144.99;97.01;52397.13;5067667;28;19984;-69
2021/09/28 07:32:38;;;;;;;;;;;;;;;-144.99;94.84;52407.31;5067273;28;19981;-69
2021/09/28 07:35:05;;;;;;;;;;;;;;;-144.99;94.14;52382.88;5064806;28;19973;-68
2021/09/28 07:37:33;;;;;;;;;;;;;;;-144.99;91.82;52431.78;5063243;28;20084;-69
2021/09/28 07:39:59;;;;;;;;;;;;;;;-144.99;90.11;52395.09;5067369;28;19988;-69
2021/09/28 07:42:26;;;;;;;;;;;;;;;-144.99;90.30;52431.78;5067074;28;20014;-69
2021/09/28 07:44:53;;;;;;;;;;;;;;;-144.99;89.73;52431.78;5065392;28;20388;-68
2021/09/28 07:47:19;;;;;;;;;;;;;;;-144.99;89.19;52427.72;5065712;28;20027;-69
2021/09/28 07:49:45;;;;;;;;;;;;;;;-144.99;89.67;52429.75;5067219;28;20474;-63
2021/09/28 07:52:12;;;;;;;;;;;;;;;-144.99;90.53;52399.19;5061772;28;20361;-66
2021/09/28 07:54:40;;;;;;;;;;;;;;;-144.99;87.56;52413.44;5064370;28;19984;-65
2021/09/28 07:57:08;;;;;;;;;;;;;;;-144.99;87.10;52435.88;5063869;28;20074;-66
2021/09/28 07:59:34;;;;;;;;;;;;;;;-144.99;87.88;52386.94;5063270;28;19988;-62
2021/09/28 08:02:00;;;;;;;;;;;;;;;-144.99;87.03;52382.88;5062573;28;19998;-64
2021/09/28 08:04:27;;;;;;;;;;;;;;;-144.99;86.32;52450.13;5066009;28;19929;-62
2021/09/28 08:06:55;;;;;;;;;;;;;;;-144.99;87.76;52399.19;5066239;28;19996;-64
2021/09/28 08:09:21;;;;;;;;;;;;;;;-144.99;87.23;52423.63;5066501;28;19984;-63
2021/09/28 08:11:49;;;;;;;;;;;;;;;-144.99;85.88;52439.94;5063663;28;19980;-63
2021/09/28 08:14:15;;;;;;;;;;;;;;;-144.99;86.02;52399.19;5066151;28;19977;-64
2021/09/28 08:16:41;;;;;;;;;;;;;;;-144.99;85.21;52395.09;5066646;28;19976;-63
2021/09/28 08:19:08;;;;;;;;;;;;;;;-144.99;84.41;52403.25;5065840;28;19988;-64
2021/09/28 08:21:34;;;;;;;;;;;;;;;-144.99;81.65;52397.13;5064237;28;19977;-63
2021/09/28 08:24:01;;;;;;;;;;;;;;;-144.99;83.60;52431.78;5061268;28;20005;-64
2021/09/28 08:29:13;;;;;;;;;;;;;;;-144.99;82.50;52403.25;5066818;28;19983;-63
2021/09/28 08:31:41;;;;;;;;;;;;;;;-144.99;82.27;52399.19;5064773;28;20004;-64
2021/09/28 08:34:08;;;;;;;;;;;;;;;-144.99;80.82;52431.78;5065763;28;19973;-64
2021/09/28 08:36:34;;;;;;;;;;;;;;;-144.99;80.31;52374.72;5064497;28;20695;-61
2021/09/28 08:39:01;;;;;;;;;;;;;;;-144.99;81.22;52378.78;5066738;28;20008;-63
2021/09/28 08:41:28;;;;;;;;;;;;;;;-144.99;79.48;52382.88;5064453;28;19977;-64
2021/09/28 08:43:54;;;;;;;;;;;;;;;-144.99;80.25;52382.88;5065867;28;19992;-64
2021/09/28 08:46:22;;;;;;;;;;;;;;;-144.99;78.36;52368.59;5066608;28;19981;-62
2021/09/28 08:48:48;;;;;;;;;;;;;;;-144.99;77.70;52364.53;5066309;28;20007;-64
2021/09/28 08:51:15;;;;;;;;;;;;;;;-144.99;76.45;52403.25;5064323;28;20023;-62
2021/09/28 08:53:42;;;;;;;;;;;;;;;-144.99;76.28;52386.94;5063211;28;19981;-63
2021/09/28 08:56:11;;;;;;;;;;;;;;;-144.99;75.00;52350.25;5066584;28;20072;-62
2021/09/28 08:58:52;;;;;;;;;;;;;;;-144.99;74.67;52346.19;5064815;28;20398;-62
2021/09/28 09:01:18;;;;;;;;;;;;;;;-144.99;73.95;52376.75;5061093;28;20456;-62
2021/09/28 09:03:46;;;;;;;;;;;;;;;-144.99;73.09;52338.03;5056306;28;19997;-63
2021/09/28 09:06:14;;;;;;;;;;;;;;;-144.99;72.41;52386.94;5058904;28;19988;-62
2021/09/28 09:08:40;;;;;;;;;;;;;;;-144.99;73.19;52358.41;5065183;28;20112;-63
2021/09/28 09:11:08;;;;;;;;;;;;;;;-144.99;71.07;52362.50;5061295;28;19977;-64
2021/09/28 09:13:35;;;;;;;;;;;;;;;-144.99;70.24;52346.19;5066588;28;20192;-62
2021/09/28 09:16:01;;;;;;;;;;;;;;;-144.99;70.00;52362.50;5069851;28;19985;-65
2021/09/28 09:18:28;;;;;;;;;;;;;;;-144.99;68.99;52329.88;5069424;28;19997;-64
2021/09/28 09:20:58;;;;;;;;;;;;;;;-144.99;68.01;52325.81;5067770;28;20236;-62
2021/09/28 09:23:28;;;;;;;;;;;;;;;-144.99;68.21;52364.53;5069261;28;19992;-63
2021/09/28 09:26:15;;;;;;;;;;;;;;;-144.99;66.46;52362.50;5069068;28;19980;-62
2021/09/28 09:28:43;;;;;;;;;;;;;;;-144.99;64.92;52331.91;5062136;28;20035;-62
2021/09/28 09:31:11;;;;;;;;;;;;;;;-144.99;63.57;52315.59;5067182;28;20056;-62
2021/09/28 09:33:38;;;;;;;;;;;;;;;-144.99;61.58;52268.72;5069185;28;20028;-59
2021/09/28 09:36:06;;;;;;;;;;;;;;;-144.99;59.07;52260.56;5068495;28;19981;-64
2021/09/28 09:38:40;;;;;;;;;;;;;;;-144.99;57.84;52303.38;5068654;28;20000;-69
2021/09/28 09:41:06;;;;;;;;;;;;;;;-144.99;57.31;52313.56;5066843;28;20275;-66
2021/09/28 09:43:34;;;;;;;;;;;;;;;-144.99;56.78;52268.72;5068392;28;20098;-66
2021/09/28 09:46:10;;;;;;;;;;;;;;;-144.99;56.68;52252.44;5069181;28;20015;-66
2021/09/28 09:48:39;;;;;;;;;;;;;;;-144.99;56.36;52248.34;5068925;28;20004;-67
2021/09/28 09:51:08;;;;;;;;;;;;;;;-144.99;56.58;52236.13;5064967;28;19981;-65
2021/09/28 09:53:35;;;;;;;;;;;;;;;-144.99;55.46;52266.69;5065677;28;19988;-65
2021/09/28 09:56:02;;;;;;;;;;;;;;;-144.99;55.17;52256.50;5066256;28;19977;-65
2021/09/28 09:58:31;;;;;;;;;;;;;;;-144.99;54.13;52215.75;5068522;28;20012;-66
2021/09/28 10:00:58;;;;;;;;;;;;;;;-144.99;49.14;52238.16;5064923;28;20038;-65
2021/09/28 10:03:25;;;;;;;;;;;;;;;-144.99;49.11;52232.03;5066461;28;20084;-66
2021/09/28 10:05:51;;;;;;;;;;;;;;;-144.99;47.73;52248.34;5067400;28;19984;-65
2021/09/28 10:08:19;;;;;;;;;;;;;;;-144.99;48.00;52240.19;5067914;28;20001;-66
2021/09/28 10:10:48;;;;;;;;;;;;;;;-144.99;47.73;52199.44;5065379;28;19972;-66
2021/09/28 10:13:38;;;;;;;;;;;;;;;-144.99;48.44;52236.13;5066011;28;19977;-66
2021/09/28 10:16:19;;;;;;;;;;;;;;;-144.99;47.39;52154.59;5057338;28;19984;-65
2021/09/28 10:18:46;;;;;;;;;;;;;;;-144.99;46.10;52138.28;5063447;28;20008;-66
2021/09/28 10:21:29;;;;;;;;;;;;;;;-144.99;45.06;52121.97;5067412;28;20081;-65
2021/09/28 10:24:10;;;;;;;;;;;;;;;-144.99;43.71;52126.06;5059221;28;19989;-65
2021/09/28 10:26:38;;;;;;;;;;;;;;;-144.99;43.70;52121.97;5056755;28;20438;-65
2021/09/28 10:29:36;;;;;;;;;;;;;;;-144.99;43.57;52140.31;5079307;28;19996;-64
2021/09/28 10:32:03;;;;;;;;;;;;;;;-144.99;42.18;52117.91;5067798;28;19977;-65
2021/09/28 10:34:53;;;;;;;;;;;;;;;-144.99;41.84;52146.44;5062911;28;19985;-65
2021/09/28 10:37:43;;;;;;;;;;;;;;;-144.99;41.20;52056.78;5066749;28;20008;-65
2021/09/28 10:40:30;;;;;;;;;;;;;;;-144.99;43.02;52154.59;5066762;28;20192;-65
2021/09/28 10:42:58;;;;;;;;;;;;;;;-144.99;42.69;52134.22;5064269;28;19973;-65
2021/09/28 10:45:40;;;;;;;;;;;;;;;-144.99;44.13;52130.13;5059190;28;19974;-66
2021/09/28 10:48:07;;;;;;;;;;;;;;;-144.99;43.48;52142.38;5055836;28;20005;-65
2021/09/28 10:50:34;;;;;;;;;;;;;;;-144.99;44.05;52087.34;5067222;28;19981;-66
2021/09/28 10:53:03;;;;;;;;;;;;;;;-144.99;43.62;52211.66;5063744;28;20003;-66
2021/09/28 10:55:42;;;;;;;;;;;;;;;-144.99;44.39;52097.53;5062854;28;20528;-65
2021/09/28 10:58:22;;;;;;;;;;;;;;;-144.99;43.59;52121.97;5058365;28;20004;-64
2021/09/28 11:01:13;;;;;;;;;;;;;;;-144.99;43.15;52089.38;5067327;28;20014;-65
2021/09/28 11:03:51;;;;;;;;;;;;;;;-144.99;43.28;52242.22;5043395;28;20000;-65
2021/09/28 11:06:22;;;;;;;;;;;;;;;-144.99;44.37;52264.66;5063896;28;19981;-65
2021/09/28 11:08:55;;;;;;;;;;;;;;;-144.99;47.33;52309.50;5063492;28;20106;-65
2021/09/28 11:11:22;;;;;;;;;;;;;;;-144.99;47.78;52121.97;5066310;28;20460;-65
2021/09/28 11:13:49;;;;;;;;;;;;;;;-144.99;44.50;52109.75;5064978;28;20349;-65
2021/09/28 11:16:15;;;;;;;;;;;;;;;-144.99;42.51;52105.69;5061614;28;20132;-66
2021/09/28 11:18:53;;;;;;;;;;;;;;;-144.99;42.13;52064.91;5065135;28;19999;-65
2021/09/28 11:21:19;;;;;;;;;;;;;;;-144.99;41.47;52024.16;5065691;28;20152;-65
2021/09/28 11:23:50;;;;;;;;;;;;;;;-144.99;40.29;52028.22;5063917;28;19996;-65
2021/09/28 11:26:18;;;;;;;;;;;;;;;-144.99;38.60;51979.31;5065615;28;19977;-65
2021/09/28 11:28:47;;;;;;;;;;;;;;;-144.99;37.95;52003.78;5067872;28;20008;-65
2021/09/28 11:31:14;;;;;;;;;;;;;;;-144.99;40.52;52058.81;5066093;28;20418;-64
2021/09/28 11:33:41;;;;;;;;;;;;;;;-144.99;40.71;52052.69;5065053;28;19981;-64
2021/09/28 11:36:09;;;;;;;;;;;;;;;-144.99;37.23;52060.84;5065731;28;19981;-63
2021/09/28 11:38:36;;;;;;;;;;;;;;;-144.99;37.40;52022.13;5064702;28;19993;-63
2021/09/28 11:41:04;;;;;;;;;;;;;;;-144.99;37.08;52146.44;5059055;28;19977;-64
2021/09/28 11:43:33;;;;;;;;;;;;;;;-144.99;38.28;52054.72;5064573;28;19997;-63
2021/09/28 11:46:01;;;;;;;;;;;;;;;-144.99;38.35;52044.53;5066956;28;20013;-64
2021/09/28 11:48:28;;;;;;;;;;;;;;;-144.99;36.28;52207.59;5063554;28;20210;-65
2021/09/28 11:50:54;;;;;;;;;;;;;;;-144.99;37.14;52236.13;5063167;28;20034;-64
2021/09/28 11:53:21;;;;;;;;;;;;;;;-144.99;39.32;52252.44;5063407;28;19973;-64
2021/09/28 11:55:48;;;;;;;;;;;;;;;-144.99;40.28;52097.53;5065098;28;19981;-63
2021/09/28 11:58:14;;;;;;;;;;;;;;;-144.99;39.35;52062.88;5063495;28;20004;-63
2021/09/28 12:00:44;;;;;;;;;;;;;;;-144.99;38.59;52020.09;5066381;28;19982;-63
2021/09/28 12:03:11;;;;;;;;;;;;;;;-144.99;37.30;52044.53;5066417;28;19996;-63
2021/09/28 12:05:46;;;;;;;;;;;;;;;-144.99;36.37;52020.09;5062978;28;20020;-63
2021/09/28 12:08:21;;;;;;;;;;;;;;;-144.99;36.75;52007.84;5065284;28;19996;-64
2021/09/28 12:10:48;;;;;;;;;;;;;;;-144.99;38.40;52195.34;5066426;28;20190;-64
2021/09/28 12:13:15;;;;;;;;;;;;;;;-144.99;38.75;52248.34;5060167;28;19973;-64
2021/09/28 12:15:56;;;;;;;;;;;;;;;-144.99;39.48;52285.03;5065270;28;19981;-64
2021/09/28 12:18:24;;;;;;;;;;;;;;;-144.99;39.96;52105.69;5062188;28;20155;-64
2021/09/28 12:20:50;;;;;;;;;;;;;;;-144.99;39.32;52085.31;5065795;28;20406;-64
2021/09/28 12:23:16;;;;;;;;;;;;;;;-144.99;38.90;52052.69;5062663;28;20338;-63
2021/09/28 12:25:45;;;;;;;;;;;;;;;-144.99;38.01;52134.22;5057287;28;19980;-64
2021/09/28 12:28:17;;;;;;;;;;;;;;;-144.99;38.48;52170.91;5065450;28;20481;-63